Time;durP1;ratioP1;P1;durP2;ratioP2;P2;SDS_P1;SDS_P2;PMS_P1;PMS_P2;Temp;Humidity;BMP_temperature;BMP_pressure;BME280_temperature;BME280_humidity;BME280_pressure;Samples;Min_cycle;Max_cycle;Signal;HPM_P1;HPM_P2
2022/10/13 00:01:18;;;;;;;26.95;14.85;;;;;;;;;;5015675;28;20160;-73
2022/10/13 00:03:45;;;;;;;29.10;14.68;;;;;;;;;;4998827;28;20072;-74
2022/10/13 00:06:12;;;;;;;26.77;14.27;;;;;;;;;;5013842;28;20045;-74
2022/10/13 00:08:39;;;;;;;30.00;14.30;;;;;;;;;;5015021;28;20043;-74
2022/10/13 00:11:10;;;;;;;28.27;14.82;;;;;;;;;;5015368;28;20041;-74
2022/10/13 00:13:36;;;;;;;30.67;14.40;;;;;;;;;;5015371;28;20033;-74
2022/10/13 00:16:03;;;;;;;31.25;15.02;;;;;;;;;;5014317;28;20045;-74
2022/10/13 00:18:29;;;;;;;33.10;15.68;;;;;;;;;;5015294;28;20087;-73
2022/10/13 00:20:55;;;;;;;30.00;14.75;;;;;;;;;;5015342;28;20072;-74
2022/10/13 00:23:21;;;;;;;31.58;15.00;;;;;;;;;;5015257;28;20041;-74
2022/10/13 00:25:48;;;;;;;33.47;15.20;;;;;;;;;;5015203;28;20489;-74
2022/10/13 00:28:15;;;;;;;28.70;15.15;;;;;;;;;;5015388;28;20041;-73
2022/10/13 00:30:41;;;;;;;27.15;15.77;;;;;;;;;;5015244;28;20036;-73
2022/10/13 00:33:08;;;;;;;32.33;15.05;;;;;;;;;;4998952;28;20049;-73
2022/10/13 00:35:34;;;;;;;25.13;14.90;;;;;;;;;;5007300;28;20119;-73
2022/10/13 00:38:00;;;;;;;34.33;14.77;;;;;;;;;;4998955;28;20048;-73
2022/10/13 00:40:26;;;;;;;32.13;14.88;;;;;;;;;;4995540;28;20050;-73
2022/10/13 00:42:52;;;;;;;30.02;14.43;;;;;;;;;;4995696;28;20045;-73
2022/10/13 00:45:23;;;;;;;31.75;14.88;;;;;;;;;;5012273;28;20393;-73
2022/10/13 00:47:52;;;;;;;29.23;15.05;;;;;;;;;;4998829;28;20042;-73
2022/10/13 00:50:31;;;;;;;29.63;14.30;;;;;;;;;;5014714;28;20125;-73
2022/10/13 00:52:58;;;;;;;33.63;15.50;;;;;;;;;;5015043;28;20041;-73
2022/10/13 00:55:26;;;;;;;36.75;16.08;;;;;;;;;;5014683;28;20037;-73
2022/10/13 00:57:54;;;;;;;35.42;15.82;;;;;;;;;;5015314;28;20071;-73
2022/10/13 01:00:21;;;;;;;27.02;14.73;;;;;;;;;;4998477;28;20056;-73
2022/10/13 01:02:47;;;;;;;29.15;16.50;;;;;;;;;;5014912;28;20052;-73
2022/10/13 01:05:13;;;;;;;29.65;15.80;;;;;;;;;;5014370;28;20037;-73
2022/10/13 01:07:39;;;;;;;35.10;16.85;;;;;;;;;;5014837;28;20057;-73
2022/10/13 01:10:05;;;;;;;33.63;15.43;;;;;;;;;;5015330;28;20452;-73
2022/10/13 01:12:55;;;;;;;30.83;16.20;;;;;;;;;;5018276;28;20099;-73
2022/10/13 01:15:30;;;;;;;28.30;16.20;;;;;;;;;;5017675;28;20053;-73
2022/10/13 01:18:25;;;;;;;28.77;15.85;;;11.20;99.90;;;;;;5018176;28;20124;-73
2022/10/13 01:21:18;;;;;;;29.95;15.13;;;;;;;;;;5018022;28;20053;-73
2022/10/13 01:24:17;;;;;;;36.08;16.67;;;11.00;99.90;;;;;;5015388;28;20367;-73
2022/10/13 01:27:03;;;;;;;27.55;14.85;;;;;;;;;;5017684;28;20046;-73
2022/10/13 01:29:42;;;;;;;33.60;16.20;;;;;;;;;;5001491;28;20488;-73
2022/10/13 01:32:13;;;;;;;29.55;15.30;;;;;;;;;;5018076;28;20033;-74
2022/10/13 01:34:39;;;;;;;24.40;14.23;;;;;;;;;;5017526;28;20059;-72
2022/10/13 01:37:05;;;;;;;27.40;15.43;;;;;;;;;;5001163;28;20049;-72
2022/10/13 01:39:42;;;;;;;32.83;16.23;;;;;;;;;;5017521;28;20050;-72
2022/10/13 01:42:13;;;;;;;34.17;16.27;;;;;;;;;;5017437;28;20049;-72
2022/10/13 01:44:45;;;;;;;33.95;15.20;;;;;;;;;;5017629;28;20103;-73
2022/10/13 01:47:13;;;;;;;27.85;15.38;;;;;;;;;;5017820;28;20580;-73
2022/10/13 01:49:40;;;;;;;29.15;14.02;;;;;;;;;;5017655;28;20037;-73
2022/10/13 01:52:08;;;;;;;25.40;15.15;;;;;;;;;;5017565;28;20033;-72
2022/10/13 01:54:34;;;;;;;25.67;14.85;;;;;;;;;;5018172;28;20083;-72
2022/10/13 01:57:00;;;;;;;23.20;14.38;;;;;;;;;;5021588;28;20041;-73
2022/10/13 01:59:28;;;;;;;27.85;14.63;;;;;;;;;;5020666;28;20045;-73
2022/10/13 02:02:08;;;;;;;25.85;14.50;;;;;;;;;;5017148;28;20041;-72
2022/10/13 02:04:45;;;;;;;29.30;14.25;;;;;;;;;;5017242;28;20041;-73
2022/10/13 02:07:27;;;;;;;26.75;15.25;;;;;;;;;;5017271;28;20490;-73
2022/10/13 02:10:12;;;;;;;27.20;14.87;;;;;;;;;;5016893;28;20029;-73
2022/10/13 02:12:44;;;;;;;32.65;14.93;;;;;;;;;;5017676;28;20339;-73
2022/10/13 02:15:12;;;;;;;;;;;11.20;99.90;;;;;;5001589;28;20447;-73
2022/10/13 02:17:39;;;;;;;25.33;14.50;;;;;;;;;;5017523;28;19917;-73
2022/10/13 02:20:06;;;;;;;28.67;14.57;;;;;;;;;;5016604;28;20658;-73
2022/10/13 02:22:33;;;;;;;25.02;15.05;;;;;;;;;;4984996;28;20051;-73
2022/10/13 02:24:59;;;;;;;28.98;14.55;;;;;;;;;;5000630;28;20056;-73
2022/10/13 02:27:26;;;;;;;26.83;13.75;;;;;;;;;;5017191;28;20115;-73
2022/10/13 02:29:54;;;;;;;31.35;15.48;;;;;;;;;;5016787;28;20075;-73
2022/10/13 02:32:20;;;;;;;32.13;14.98;;;;;;;;;;4997311;28;20077;-73
2022/10/13 02:34:46;;;;;;;26.65;14.23;;;;;;;;;;4997220;28;20571;-73
2022/10/13 02:37:13;;;;;;;27.17;14.32;;;;;;;;;;4989798;28;20041;-73
2022/10/13 02:39:39;;;;;;;27.27;14.38;;;;;;;;;;5010090;28;20139;-73
2022/10/13 02:42:05;;;;;;;34.97;14.90;;;;;;;;;;5016404;28;20126;-73
2022/10/13 02:44:31;;;;;;;26.40;14.55;;;;;;;;;;5016654;28;20037;-73
2022/10/13 02:46:57;;;;;;;24.45;13.90;;;;;;;;;;5016288;28;20092;-73
2022/10/13 02:49:23;;;;;;;30.63;14.63;;;;;;;;;;5016551;28;20511;-73
2022/10/13 02:51:49;;;;;;;30.42;14.48;;;;;;;;;;5016397;28;20445;-73
2022/10/13 02:54:15;;;;;;;29.15;14.18;;;;;;;;;;5016562;28;20490;-73
2022/10/13 02:56:41;;;;;;;30.08;14.73;;;;;;;;;;5016640;28;20051;-74
2022/10/13 02:59:07;;;;;;;26.17;14.65;;;;;;;;;;5016489;28;20041;-73
2022/10/13 03:01:34;;;;;;;25.48;14.57;;;;;;;;;;4996369;28;20045;-73
2022/10/13 03:04:00;;;;;;;33.78;15.52;;;;;;;;;;4980969;28;20077;-73
2022/10/13 03:06:26;;;;;;;26.67;14.68;;;;;;;;;;4988971;28;20041;-74
2022/10/13 03:08:52;;;;;;;28.60;15.57;;;;;;;;;;5016181;28;20492;-74
2022/10/13 03:11:18;;;;;;;25.67;15.30;;;;;;;;;;4979945;28;20111;-74
2022/10/13 03:13:45;;;;;;;26.00;15.23;;;;;;;;;;4996601;28;20038;-74
2022/10/13 03:16:14;;;;;;;29.23;15.43;;;;;;;;;;5002552;28;20037;-74
2022/10/13 03:18:40;;;;;;;26.17;15.07;;;;;;;;;;5015874;28;20493;-74
2022/10/13 03:21:06;;;;;;;25.45;14.70;;;;;;;;;;4998976;28;20060;-74
2022/10/13 03:23:32;;;;;;;37.63;15.63;;;;;;;;;;5015862;28;20049;-74
2022/10/13 03:25:58;;;;;;;29.85;15.57;;;;;;;;;;5015929;28;20367;-74
2022/10/13 03:28:24;;;;;;;29.48;15.75;;;;;;;;;;5016037;28;20171;-74
2022/10/13 03:30:51;;;;;;;32.78;15.85;;;;;;;;;;5015726;28;20060;-74
2022/10/13 03:33:17;;;;;;;33.92;15.32;;;;;;;;;;5015450;28;20040;-74
2022/10/13 03:35:43;;;;;;;26.85;15.15;;;;;;;;;;4999548;28;20124;-74
2022/10/13 03:38:09;;;;;;;29.80;16.73;;;;;;;;;;5015873;28;20065;-74
2022/10/13 03:40:36;;;;;;;28.38;15.30;;;;;;;;;;4999015;28;20052;-74
2022/10/13 03:43:02;;;;;;;30.42;15.82;;;;;;;;;;5015605;28;20489;-74
2022/10/13 03:45:30;;;;;;;29.80;16.33;;;;;;;;;;4983154;28;20077;-74
2022/10/13 03:47:56;;;;;;;27.75;17.23;;;;;;;;;;5015141;28;20051;-74
2022/10/13 03:50:22;;;;;;;31.70;15.68;;;;;;;;;;5015712;28;20481;-74
2022/10/13 03:52:48;;;;;;;29.52;15.55;;;;;;;;;;5015612;28;20096;-73
2022/10/13 03:55:14;;;;;;;28.80;15.90;;;;;;;;;;5015722;28;20045;-73
2022/10/13 03:57:40;;;;;;;29.70;15.82;;;;;;;;;;5015506;28;20080;-73
2022/10/13 04:00:09;;;;;;;30.38;16.88;;;;;;;;;;4999021;28;20048;-73
2022/10/13 04:02:35;;;;;;;28.67;15.55;;;;;;;;;;5015510;28;20053;-74
2022/10/13 04:05:02;;;;;;;30.42;16.13;;;;;;;;;;5014857;28;20125;-74
2022/10/13 04:07:28;;;;;;;31.02;16.45;;;;;;;;;;4998767;28;20489;-73
2022/10/13 04:09:54;;;;;;;29.83;15.88;;;;;;;;;;5015419;28;20033;-74
2022/10/13 04:12:20;;;;;;;28.33;16.88;;;;;;;;;;5015100;28;20099;-73
2022/10/13 04:14:46;;;;;;;33.65;17.17;;;;;;;;;;5015704;28;20041;-74
2022/10/13 04:17:12;;;;;;;30.77;16.60;;;;;;;;;;4998782;28;20124;-74
2022/10/13 04:19:38;;;;;;;31.95;17.40;;;;;;;;;;5015159;28;20064;-73
2022/10/13 04:22:04;;;;;;;34.17;17.13;;;;;;;;;;5015105;28;20041;-73
2022/10/13 04:24:30;;;;;;;27.50;16.58;;;;;;;;;;4998926;28;20128;-73
2022/10/13 04:26:56;;;;;;;32.72;17.23;;;;;;;;;;5015034;28;20041;-73
2022/10/13 04:29:23;;;;;;;31.60;17.40;;;;;;;;;;5014981;28;20042;-73
2022/10/13 04:31:50;;;;;;;29.80;17.70;;;;;;;;;;5014842;28;20042;-73
2022/10/13 04:34:16;;;;;;;31.23;17.65;;;;;;;;;;5015252;28;20050;-73
2022/10/13 04:36:42;;;;;;;30.20;17.38;;;;;;;;;;4998947;28;20480;-73
2022/10/13 04:39:08;;;;;;;32.17;17.70;;;;;;;;;;4998891;28;20041;-73
2022/10/13 04:41:34;;;;;;;29.65;17.33;;;;;;;;;;4998795;28;20048;-73
2022/10/13 04:44:01;;;;;;;27.65;17.15;;;;;;;;;;4998321;28;20052;-73
2022/10/13 04:46:28;;;;;;;37.50;17.60;;;;;;;;;;5001959;28;20125;-76
2022/10/13 04:48:54;;;;;;;29.70;18.20;;;;;;;;;;5002000;28;20060;-73
2022/10/13 04:51:21;;;;;;;32.17;18.27;;;;;;;;;;5002039;28;20038;-74
2022/10/13 04:53:48;;;;;;;32.92;18.40;;;;;;;;;;5018712;28;20040;-75
2022/10/13 04:56:15;;;;;;;34.30;17.73;;;;;;;;;;5018497;28;20037;-76
2022/10/13 04:58:42;;;;;;;32.85;18.67;;;;;;;;;;5001803;28;20080;-74
2022/10/13 05:01:12;;;;;;;27.33;17.95;;;;;;;;;;5017747;28;20042;-74
2022/10/13 05:03:38;;;;;;;30.42;19.25;;;;;;;;;;5017660;28;20381;-74
2022/10/13 05:06:04;;;;;;;30.52;18.65;;;;;;;;;;5018409;28;20088;-74
2022/10/13 05:08:32;;;;;;;42.22;20.35;;;;;;;;;;5001716;28;20045;-74
2022/10/13 05:11:01;;;;;;;33.80;18.80;;;;;;;;;;5018450;28;20052;-74
2022/10/13 05:13:28;;;;;;;41.92;20.27;;;;;;;;;;5018581;28;20143;-74
2022/10/13 05:15:55;;;;;;;34.65;19.00;;;;;;;;;;5001812;28;20041;-74
2022/10/13 05:18:21;;;;;;;38.47;20.33;;;;;;;;;;5017253;28;20092;-74
2022/10/13 05:20:48;;;;;;;35.80;20.38;;;;;;;;;;5017241;28;20132;-74
2022/10/13 05:23:14;;;;;;;34.55;19.90;;;;;;;;;;5017573;28;20042;-74
2022/10/13 05:25:40;;;;;;;34.78;19.13;;;;;;;;;;5017501;28;20073;-74
2022/10/13 05:28:07;;;;;;;36.45;20.10;;;;;;;;;;5017149;28;20037;-74
2022/10/13 05:30:33;;;;;;;34.20;20.20;;;;;;;;;;5015328;28;20104;-74
2022/10/13 05:32:59;;;;;;;33.08;20.05;;;;;;;;;;5001129;28;20473;-74
2022/10/13 05:35:26;;;;;;;36.55;19.63;;;;;;;;;;5017803;28;20041;-73
2022/10/13 05:37:52;;;;;;;34.17;19.60;;;;;;;;;;5016311;28;20048;-73
2022/10/13 05:40:21;;;;;;;37.25;19.75;;;;;;;;;;5017544;28;20362;-73
2022/10/13 05:42:50;;;;;;;35.65;19.20;;;;;;;;;;5016989;28;20375;-73
2022/10/13 05:45:17;;;;;;;36.00;19.27;;;;;;;;;;5017077;28;20044;-73
2022/10/13 05:47:44;;;;;;;32.38;19.50;;;;;;;;;;5016865;28;20117;-73
2022/10/13 05:50:10;;;;;;;34.63;19.60;;;;;;;;;;5017298;28;20366;-73
2022/10/13 05:52:37;;;;;;;36.72;19.13;;;;;;;;;;5016986;28;20048;-73
2022/10/13 05:55:04;;;;;;;33.70;19.98;;;;;;;;;;5016985;28;20041;-73
2022/10/13 05:57:32;;;;;;;36.10;19.75;;;;;;;;;;4999568;28;20088;-73
2022/10/13 06:00:01;;;;;;;33.70;19.90;;;;;;;;;;5015410;28;20041;-73
2022/10/13 06:02:33;;;;;;;37.72;21.25;;;;;;;;;;5017050;28;20040;-73
2022/10/13 06:05:00;;;;;;;31.90;19.67;;;;;;;;;;4999318;28;20179;-73
2022/10/13 06:07:30;;;;;;;39.80;20.63;;;;;;;;;;5017841;28;20086;-74
2022/10/13 06:09:57;;;;;;;31.30;19.02;;;;;;;;;;5016884;28;20119;-73
2022/10/13 06:12:24;;;;;;;37.80;20.10;;;;;;;;;;5017483;28;20033;-73
2022/10/13 06:14:50;;;;;;;35.50;19.45;;;;;;;;;;5017030;28;20108;-73
2022/10/13 06:17:16;;;;;;;40.58;20.42;;;;;;;;;;5015548;28;20508;-73
2022/10/13 06:19:44;;;;;;;43.58;21.23;;;;;;;;;;4998360;28;20057;-72
2022/10/13 06:22:10;;;;;;;33.35;19.80;;;;;;;;;;4999009;28;20504;-73
2022/10/13 06:24:36;;;;;;;36.42;21.13;;;;;;;;;;5016128;28;20038;-73
2022/10/13 06:27:02;;;;;;;36.92;21.90;;;;;;;;;;5000020;28;20049;-74
2022/10/13 06:29:28;;;;;;;41.83;22.63;;;;;;;;;;5000558;28;20040;-74
2022/10/13 06:31:54;;;;;;;36.05;20.30;;;;;;;;;;4984280;28;20079;-74
2022/10/13 06:34:20;;;;;;;35.78;20.45;;;;;;;;;;4999990;28;20069;-73
2022/10/13 06:36:46;;;;;;;36.50;21.50;;;;;;;;;;5016931;28;20045;-73
2022/10/13 06:39:13;;;;;;;38.33;21.25;;;;;;;;;;5016638;28;20533;-74
2022/10/13 06:41:39;;;;;;;38.25;21.85;;;;;;;;;;5000584;28;20048;-74
2022/10/13 06:44:05;;;;;;;42.85;22.75;;;;;;;;;;5015705;28;20044;-74
2022/10/13 06:46:31;;;;;;;37.25;22.58;;;;;;;;;;5016463;28;20038;-73
2022/10/13 06:48:58;;;;;;;40.88;22.42;;;;;;;;;;5000488;28;20049;-73
2022/10/13 06:51:24;;;;;;;39.47;20.80;;;;;;;;;;5017475;28;20495;-73
2022/10/13 06:53:50;;;;;;;40.60;22.05;;;;;;;;;;5017460;28;20048;-73
2022/10/13 06:56:16;;;;;;;37.97;22.52;;;;;;;;;;5001050;28;20099;-72
2022/10/13 06:58:42;;;;;;;36.38;21.42;;;;;;;;;;5017244;28;20065;-73
2022/10/13 07:01:11;;;;;;;36.38;21.48;;;;;;;;;;5017233;28;20040;-72
2022/10/13 07:03:37;;;;;;;36.35;21.58;;;;;;;;;;5016203;28;20162;-72
2022/10/13 07:06:04;;;;;;;41.00;21.85;;;;;;;;;;5016320;28;20041;-73
2022/10/13 07:08:31;;;;;;;40.10;22.25;;;;;;;;;;5013815;28;20095;-72
2022/10/13 07:10:57;;;;;;;42.13;22.15;;;;;;;;;;4999338;28;20037;-73
2022/10/13 07:13:23;;;;;;;37.70;22.80;;;;;;;;;;4999550;28;20037;-73
2022/10/13 07:15:49;;;;;;;47.78;23.83;;;;;;;;;;5015941;28;20099;-73
2022/10/13 07:18:15;;;;;;;47.05;22.90;;;;;;;;;;5015765;28;20092;-73
2022/10/13 07:20:42;;;;;;;46.25;21.80;;;;;;;;;;5016035;28;20067;-73
2022/10/13 07:23:08;;;;;;;46.25;24.67;;;;;;;;;;5016143;28;20124;-74
2022/10/13 07:25:34;;;;;;;36.47;21.65;;;;;;;;;;5015838;28;20069;-73
2022/10/13 07:28:00;;;;;;;45.95;23.33;;;;;;;;;;4999205;28;20037;-73
2022/10/13 07:30:26;;;;;;;46.63;24.65;;;;;;;;;;5015671;28;20043;-73
2022/10/13 07:32:52;;;;;;;41.33;22.98;;;;;;;;;;5016126;28;20677;-73
2022/10/13 07:35:18;;;;;;;48.08;24.52;;;;;;;;;;5015616;28;20094;-73
2022/10/13 07:37:44;;;;;;;49.95;24.60;;;;;;;;;;4983719;28;20389;-73
2022/10/13 07:40:11;;;;;;;48.83;24.50;;;;;;;;;;5015635;28;20144;-73
2022/10/13 07:42:37;;;;;;;47.75;25.55;;;;;;;;;;5015781;28;20555;-73
2022/10/13 07:45:03;;;;;;;49.72;26.15;;;;;;;;;;4999317;28;20068;-73
2022/10/13 07:47:29;;;;;;;45.67;24.55;;;;;;;;;;5015309;28;20045;-73
2022/10/13 07:49:55;;;;;;;46.42;26.10;;;;;;;;;;5015621;28;20037;-73
2022/10/13 07:52:22;;;;;;;54.08;26.98;;;;;;;;;;4999165;28;20041;-73
2022/10/13 07:54:48;;;;;;;48.70;25.70;;;;;;;;;;4999129;28;20041;-73
2022/10/13 07:57:14;;;;;;;45.60;25.73;;;;;;;;;;4999075;28;20056;-73
2022/10/13 07:59:40;;;;;;;45.45;25.63;;;;;;;;;;5015073;28;20049;-73
2022/10/13 08:02:06;;;;;;;56.00;26.58;;;;;;;;;;5015300;28;20055;-73
2022/10/13 08:04:33;;;;;;;54.42;26.92;;;;;;;;;;5015440;28;20034;-73
2022/10/13 08:06:59;;;;;;;51.78;27.42;;;;;;;;;;5015478;28;20486;-73
2022/10/13 08:09:25;;;;;;;50.38;28.67;;;;;;;;;;5015116;28;20044;-73
2022/10/13 08:11:52;;;;;;;52.55;27.38;;;;;;;;;;4999027;28;20049;-73
2022/10/13 08:14:18;;;;;;;51.53;27.98;;;;;;;;;;5015150;28;20029;-73
2022/10/13 08:16:44;;;;;;;51.28;26.98;;;;;;;;;;5015678;28;20041;-73
2022/10/13 08:19:15;;;;;;;53.85;26.95;;;;;;;;;;5016205;28;20056;-73
2022/10/13 08:21:41;;;;;;;61.05;30.38;;;;;;;;;;5003060;28;20106;-73
2022/10/13 08:24:09;;;;;;;57.67;28.67;;;;;;;;;;5019053;28;20049;-74
2022/10/13 08:26:35;;;;;;;56.72;28.48;;;;;;;;;;5019360;28;20120;-73
2022/10/13 08:29:02;;;;;;;60.40;29.13;;;;;;;;;;5018982;28;20037;-73
2022/10/13 08:31:28;;;;;;;57.50;28.83;;;;;;;;;;5019476;28;20115;-74
2022/10/13 08:33:54;;;;;;;55.08;30.15;;;;;;;;;;5019271;28;20041;-73
2022/10/13 08:36:20;;;;;;;54.25;28.70;;;;;;;;;;5019152;28;20068;-73
2022/10/13 08:38:46;;;;;;;51.90;27.90;;;;;;;;;;5003276;28;20043;-73
2022/10/13 08:41:20;;;;;;;53.70;28.20;;;;;;;;;;5019208;28;20042;-73
2022/10/13 08:43:53;;;;;;;56.75;26.90;;;;;;;;;;5019243;28;20144;-73
2022/10/13 08:46:27;;;;;;;58.10;27.15;;;;;;;;;;5019037;28;20107;-73
2022/10/13 08:48:54;;;;;;;55.50;26.48;;;;;;;;;;5019396;28;20038;-73
2022/10/13 08:51:20;;;;;;;55.13;28.05;;;;;;;;;;5002597;28;20029;-73
2022/10/13 08:53:48;;;;;;;50.90;26.52;;;;;;;;;;5018456;28;20034;-73
2022/10/13 08:56:18;;;;;;;56.90;27.48;;;;;;;;;;5001646;28;20037;-73
2022/10/13 08:58:44;;;;;;;49.72;27.15;;;;;;;;;;5002429;28;20038;-73
2022/10/13 09:01:13;;;;;;;53.75;27.17;;;;;;;;;;5018379;28;20449;-73
2022/10/13 09:03:56;;;;;;;50.20;26.02;;;;;;;;;;5002090;28;20037;-73
2022/10/13 09:06:27;;;;;;;50.25;27.48;;;;;;;;;;5018643;28;20037;-73
2022/10/13 09:08:55;;;;;;;48.75;27.48;;;;;;;;;;5018204;28;20096;-73
2022/10/13 09:11:22;;;;;;;47.88;25.30;;;;;;;;;;5018270;28;20042;-73
2022/10/13 09:13:48;;;;;;;45.50;25.38;;;;;;;;;;4998375;28;20049;-74
2022/10/13 09:16:14;;;;;;;52.05;25.80;;;;;;;;;;5016754;28;20063;-74
2022/10/13 09:18:40;;;;;;;44.20;26.05;;;;;;;;;;5000752;28;20481;-74
2022/10/13 09:21:25;;;;;;;48.92;26.25;;;;;;;;;;5016723;28;20053;-74
2022/10/13 09:23:52;;;;;;;46.50;24.98;;;;;;;;;;4999368;28;20513;-73
2022/10/13 09:26:20;;;;;;;44.40;25.63;;;;;;;;;;5000733;28;20037;-73
2022/10/13 09:28:46;;;;;;;45.90;25.05;;;;;;;;;;5000903;28;20121;-73
2022/10/13 09:31:23;;;;;;;46.40;25.02;;;;;;;;;;4993888;28;20044;-73
2022/10/13 09:34:00;;;;;;;48.03;25.60;;;;;;;;;;5017231;28;20045;-73
2022/10/13 09:36:26;;;;;;;45.47;24.33;;;;;;;;;;5016568;28;20084;-74
2022/10/13 09:39:06;;;;;;;44.42;24.25;;;;;;;;;;5016878;28;20477;-74
2022/10/13 09:41:33;;;;;;;44.30;24.77;;;;;;;;;;5016766;28;20036;-74
2022/10/13 09:44:01;;;;;;;48.63;25.92;;;;;;;;;;5000541;28;20390;-74
2022/10/13 09:46:27;;;;;;;44.03;24.58;;;;;;;;;;5016373;28;20065;-74
2022/10/13 09:48:55;;;;;;;44.33;25.55;;;;;;;;;;5016378;28;20041;-73
2022/10/13 09:51:30;;;;;;;46.03;25.77;;;;;;;;;;5016943;28;20045;-73
2022/10/13 09:53:56;;;;;;;51.03;25.60;;;;;;;;;;5016783;28;20033;-73
2022/10/13 09:56:29;;;;;;;45.95;25.45;;;;;;;;;;5016450;28;20033;-73
2022/10/13 09:59:01;;;;;;;41.05;24.20;;;;;;;;;;5016342;28;20037;-73
2022/10/13 10:01:32;;;;;;;47.60;24.35;;;;;;;;;;5033585;28;20045;-73
2022/10/13 10:03:58;;;;;;;46.30;24.63;;;;;;;;;;5016681;28;20055;-73
2022/10/13 10:06:24;;;;;;;49.85;24.98;;;;;;;;;;4999957;28;20040;-73
2022/10/13 10:08:56;;;;;;;44.88;24.83;;;;;;;;;;5016194;28;20133;-73
2022/10/13 10:11:32;;;;;;;39.45;22.85;;;;;;;;;;5016231;28;20038;-74
2022/10/13 10:14:00;;;;;;;38.88;21.40;;;;;;;;;;5015985;28;20049;-73
2022/10/13 10:16:55;;;;;;;43.58;22.00;;;;;;;;;;5015940;28;20033;-73
2022/10/13 10:19:24;;;;;;;39.85;22.67;;;;;;;;;;4999706;28;20037;-73
2022/10/13 10:21:57;;;;;;;42.55;22.70;;;;;;;;;;5016264;28;20119;-73
2022/10/13 10:24:42;;;;;;;36.75;20.90;;;;;;;;;;4999510;28;20041;-73
2022/10/13 10:27:20;;;;;;;40.00;22.00;;;;;;;;;;5015787;28;20041;-74
2022/10/13 10:29:53;;;;;;;39.70;21.33;;;;;;;;;;5033971;28;20445;-74
2022/10/13 10:32:28;;;;;;;42.35;22.48;;;;;;;;;;4999751;28;20076;-74
2022/10/13 10:34:58;;;;;;;39.60;19.88;;;;;;;;;;4999640;28;20034;-73
2022/10/13 10:37:24;;;;;;;35.13;19.48;;;;;;;;;;4999555;28;20046;-73
2022/10/13 10:40:08;;;;;;;34.45;19.60;;;;;;;;;;5016020;28;20053;-73
2022/10/13 10:42:53;;;;;;;31.67;18.98;;;;;;;;;;5015772;28;20068;-74
2022/10/13 10:45:25;;;;;;;34.95;18.40;;;;;;;;;;5010077;28;20049;-73
2022/10/13 10:47:55;;;;;;;33.65;17.98;;;;;;;;;;5015311;28;20044;-74
2022/10/13 10:50:21;;;;;;;39.80;18.73;;;;;;;;;;5015256;28;20029;-74
2022/10/13 10:53:13;;;;;;;32.67;17.42;;;14.00;99.90;;;;;;5015242;28;20116;-74
2022/10/13 10:55:39;;;;;;;30.27;17.60;;;;;;;;;;5014551;28;20098;-74
2022/10/13 10:58:23;;;;;;;36.50;18.02;;;;;;;;;;4998535;28;20072;-74
2022/10/13 11:01:06;;;;;;;35.20;18.85;;;;;;;;;;5015041;28;20037;-74
2022/10/13 11:03:47;;;;;;;33.33;19.10;;;;;;;;;;5015205;28;20049;-74
2022/10/13 11:06:16;;;;;;;30.88;18.67;;;;;;;;;;4998728;28;20045;-74
2022/10/13 11:08:48;;;;;;;32.20;18.02;;;;;;;;;;5014346;28;20033;-74
2022/10/13 11:11:24;;;;;;;31.95;17.40;;;;;;;;;;5015119;28;20033;-73
2022/10/13 11:14:05;;;;;;;28.27;15.02;;;;;;;;;;5023373;28;20547;-74
2022/10/13 11:16:40;;;;;;;23.10;11.60;;;;;;;;;;5018178;28;20038;-74
2022/10/13 11:19:25;;;;;;;21.42;10.57;;;;;;;;;;5003296;28;20029;-70
2022/10/13 11:21:57;;;;;;;18.02;9.02;;;;;;;;;;5032407;28;20554;-69
2022/10/13 11:24:37;;;;;;;21.77;8.60;;;;;;;;;;5014530;28;20124;-68
2022/10/13 11:27:15;;;;;;;21.52;7.82;;;;;;;;;;5014420;28;20076;-69
2022/10/13 11:29:48;;;;;;;17.02;5.97;;;;;;;;;;5014694;28;20091;-69
2022/10/13 11:32:26;;;;;;;16.88;6.43;;;;;;;;;;5014396;28;20033;-69
2022/10/13 11:34:59;;;;;;;12.93;6.15;;;;;;;;;;5014684;28;20072;-68
2022/10/13 11:37:28;;;;;;;11.50;5.25;;;;;;;;;;5014779;28;20037;-68
2022/10/13 11:40:12;;;;;;;14.23;5.50;;;14.60;99.90;;;;;;5029776;28;20030;-69
2022/10/13 11:42:53;;;;;;;16.08;5.85;;;;;;;;;;5014402;28;20095;-69
2022/10/13 11:45:41;;;;;;;16.52;5.78;;;;;;;;;;5031818;28;20052;-68
2022/10/13 11:48:10;;;;;;;15.57;4.85;;;;;;;;;;4999337;28;20548;-69
2022/10/13 11:51:30;;;;;;;12.27;5.00;;;14.70;99.90;;;;;;5014900;28;20045;-69
2022/10/13 11:54:05;;;;;;;16.10;4.80;;;;;;;;;;4917602;29;20044;-69
2022/10/13 11:56:35;;;;;;;11.82;4.35;;;;;;;;;;5018605;28;20513;-68
2022/10/13 11:59:02;;;;;;;11.35;4.32;;;;;;;;;;5032877;28;20124;-68
2022/10/13 12:01:28;;;;;;;16.33;4.70;;;;;;;;;;5015538;28;20037;-68
2022/10/13 12:03:54;;;;;;;14.68;5.47;;;;;;;;;;5015577;28;20040;-69
2022/10/13 12:06:20;;;;;;;13.88;3.92;;;;;;;;;;5033042;28;20393;-68
2022/10/13 12:08:50;;;;;;;13.13;3.88;;;;;;;;;;5032887;28;20505;-68
2022/10/13 12:11:23;;;;;;;12.15;4.38;;;;;;;;;;5015356;28;20037;-65
2022/10/13 12:13:49;;;;;;;11.27;3.28;;;;;;;;;;5015212;28;20041;-65
2022/10/13 12:16:15;;;;;;;10.65;3.55;;;;;;;;;;5031476;28;20040;-65
2022/10/13 12:18:41;;;;;;;8.63;3.60;;;;;;;;;;4995280;28;20038;-65
2022/10/13 12:21:10;;;;;;;10.52;3.20;;;;;;;;;;5013364;28;20598;-65
2022/10/13 12:23:36;;;;;;;10.40;2.67;;;;;;;;;;5013449;28;20049;-65
2022/10/13 12:26:03;;;;;;;8.52;3.03;;;;;;;;;;5024264;28;20030;-65
2022/10/13 12:28:50;;;;;;;9.65;3.05;;;;;;;;;;5015028;28;20041;-65
2022/10/13 12:31:25;;;;;;;8.23;3.25;;;;;;;;;;5032215;28;20047;-66
2022/10/13 12:33:52;;;;;;;9.65;3.13;;;;;;;;;;5032272;28;20033;-65
2022/10/13 12:36:19;;;;;;;12.70;3.35;;;;;;;;;;5032375;28;20120;-66
2022/10/13 12:38:50;;;;;;;11.13;3.35;;;;;;;;;;5032516;28;20458;-65
2022/10/13 12:41:17;;;;;;;8.40;2.92;;;;;;;;;;5032303;28;20091;-66
2022/10/13 12:43:44;;;;;;;12.88;3.13;;;;;;;;;;5032341;28;20515;-66
2022/10/13 12:46:10;;;;;;;7.93;3.08;;;;;;;;;;5014725;28;20504;-65
2022/10/13 12:48:37;;;;;;;11.50;3.17;;;;;;;;;;5014732;28;20056;-66
2022/10/13 12:51:18;;;;;;;11.32;3.55;;;;;;;;;;5014505;28;20053;-64
2022/10/13 12:53:44;;;;;;;14.55;3.55;;;;;;;;;;5032544;28;20038;-65
2022/10/13 12:56:19;;;;;;;9.25;2.80;;;;;;;;;;5014772;28;20076;-65
2022/10/13 12:58:45;;;;;;;9.45;2.80;;;;;;;;;;4998605;28;20037;-65
2022/10/13 13:01:11;;;;;;;10.38;3.25;;;;;;;;;;5032445;28;20496;-64
2022/10/13 13:03:38;;;;;;;10.38;2.83;;;;;;;;;;5032591;28;20037;-65
2022/10/13 13:06:21;;;;;;;7.07;2.17;;;;;;;;;;5032861;28;20084;-65
2022/10/13 13:08:47;;;;;;;;;;;;;;;;;;5034670;28;20045;-65
2022/10/13 13:11:22;;;;;;;10.57;2.38;;;15.00;99.90;;;;;;5035624;28;19924;-65
2022/10/13 13:13:48;;;;;;;10.50;2.20;;;;;;;;;;5036125;28;20405;-64
2022/10/13 13:16:16;;;;;;;8.93;2.03;;;;;;;;;;5017426;28;20037;-64
2022/10/13 13:18:43;;;;;;;7.13;2.42;;;;;;;;;;5015189;28;20438;-65
2022/10/13 13:21:11;;;;;;;9.20;2.20;;;;;;;;;;5017589;28;20202;-65
2022/10/13 13:23:37;;;;;;;7.20;2.05;;;;;;;;;;5036093;28;20128;-65
2022/10/13 13:26:12;;;;;;;7.78;1.48;;;15.20;99.90;;;;;;5035224;28;20493;-64
2022/10/13 13:28:39;;;;;;;7.15;1.60;;;;;;;;;;5035253;28;20063;-65
2022/10/13 13:31:05;;;;;;;8.07;2.20;;;;;;;;;;5017333;28;20112;-67
2022/10/13 13:33:31;;;;;;;5.95;1.83;;;;;;;;;;5017528;28;20033;-68
2022/10/13 13:35:57;;;;;;;7.00;1.52;;;;;;;;;;5017126;28;20119;-64
2022/10/13 13:38:23;;;;;;;9.38;1.85;;;;;;;;;;5033246;28;20053;-65
2022/10/13 13:40:49;;;;;;;7.20;1.90;;;;;;;;;;5034680;28;20124;-65
2022/10/13 13:43:15;;;;;;;10.10;1.95;;;;;;;;;;5033137;28;20514;-65
2022/10/13 13:45:42;;;;;;;6.60;1.67;;;;;;;;;;5016937;28;20049;-65
2022/10/13 13:48:10;;;;;;;5.82;1.63;;;;;;;;;;5016368;28;20477;-65
2022/10/13 13:50:36;;;;;;;9.30;2.00;;;;;;;;;;5001171;28;20046;-65
2022/10/13 13:53:03;;;;;;;7.35;1.80;;;;;;;;;;4999881;28;20470;-65
2022/10/13 13:55:29;;;;;;;5.35;1.88;;;;;;;;;;5035113;28;20048;-65
2022/10/13 13:57:55;;;;;;;5.28;1.95;;;;;;;;;;5017705;28;20373;-65
2022/10/13 14:00:22;;;;;;;6.40;1.95;;;;;;;;;;5017490;28;20048;-66
2022/10/13 14:02:48;;;;;;;8.10;1.90;;;;;;;;;;5035214;28;20041;-65
2022/10/13 14:05:14;;;;;;;7.88;2.00;;;;;;;;;;5017273;28;20124;-66
2022/10/13 14:07:40;;;;;;;7.10;2.00;;;;;;;;;;5017202;28;20053;-65
2022/10/13 14:10:07;;;;;;;10.68;1.95;;;;;;;;;;5017156;28;20129;-65
2022/10/13 14:12:33;;;;;;;5.15;2.33;;;;;;;;;;5017159;28;20040;-65
2022/10/13 14:15:00;;;;;;;10.35;1.98;;;;;;;;;;5017654;28;20507;-66
2022/10/13 14:17:26;;;;;;;12.45;3.03;;;;;;;;;;5017029;28;20041;-66
2022/10/13 14:19:52;;;;;;;9.48;2.13;;;;;;;;;;5034595;28;20071;-65
2022/10/13 14:22:19;;;;;;;11.90;2.83;;;;;;;;;;5017389;28;20107;-65
2022/10/13 14:24:46;;;;;;;9.90;2.25;;;;;;;;;;5034677;28;20393;-66
2022/10/13 14:27:12;;;;;;;15.43;2.95;;;;;;;;;;5034501;28;20069;-65
2022/10/13 14:29:38;;;;;;;8.77;1.98;;;;;;;;;;5016858;28;20081;-66